Time;durP1;ratioP1;P1;durP2;ratioP2;P2;SDS_P1;SDS_P2;PMS_P1;PMS_P2;Temp;Humidity;BMP_temperature;BMP_pressure;BME280_temperature;BME280_humidity;BME280_pressure;Samples;Min_cycle;Max_cycle;Signal;HPM_P1;HPM_P2
2021/04/18 00:02:17;;;;;;;6.57;5.77;;;7.80;99.90;;;;;;5073451;28;20210;-71
2021/04/18 00:04:44;;;;;;;7.33;6.67;;;7.90;99.90;;;;;;5072916;28;20237;-64
2021/04/18 00:07:11;;;;;;;8.03;6.57;;;7.90;99.90;;;;;;5073313;28;20645;-73
2021/04/18 00:09:38;;;;;;;8.37;6.60;;;7.80;99.90;;;;;;5072980;28;20213;-69
2021/04/18 00:12:05;;;;;;;7.83;6.93;;;7.80;99.90;;;;;;5073026;28;20661;-73
2021/04/18 00:14:32;;;;;;;7.90;7.03;;;7.80;99.90;;;;;;5073132;28;20256;-73
2021/04/18 00:16:59;;;;;;;16.17;7.33;;;7.80;99.90;;;;;;5072895;28;20202;-69
2021/04/18 00:19:26;;;;;;;8.87;7.00;;;7.70;99.90;;;;;;5072679;28;20598;-66
2021/04/18 00:21:52;;;;;;;10.63;7.53;;;7.70;99.90;;;;;;5073073;28;20206;-72
2021/04/18 00:24:18;;;;;;;9.07;6.93;;;7.60;99.90;;;;;;5073603;28;20287;-73
2021/04/18 00:26:45;;;;;;;8.13;7.43;;;7.60;99.90;;;;;;5072892;28;20206;-73
2021/04/18 00:29:11;;;;;;;8.97;8.10;;;7.50;99.90;;;;;;5072653;28;20674;-71
2021/04/18 00:31:38;;;;;;;7.80;7.00;;;7.50;99.90;;;;;;5072547;28;20685;-74
2021/04/18 00:34:05;;;;;;;10.03;8.30;;;7.60;99.90;;;;;;5072723;28;20213;-76
2021/04/18 00:36:32;;;;;;;9.27;8.27;;;7.60;99.90;;;;;;5072492;28;20210;-76
2021/04/18 00:38:58;;;;;;;9.80;7.77;;;7.70;99.90;;;;;;5072779;28;20217;-68
2021/04/18 00:41:25;;;;;;;9.57;8.60;;;7.60;99.90;;;;;;5072372;28;20210;-72
2021/04/18 00:43:51;;;;;;;9.87;8.87;;;7.60;99.90;;;;;;5073146;28;20232;-75
2021/04/18 00:46:18;;;;;;;9.33;8.30;;;7.50;99.90;;;;;;5058791;28;20214;-76
2021/04/18 00:48:46;;;;;;;9.40;8.40;;;7.60;99.90;;;;;;5071646;28;20229;-69
2021/04/18 00:51:14;;;;;;;11.50;7.87;;;7.50;99.90;;;;;;5072486;28;20264;-74
2021/04/18 00:53:42;;;;;;;10.17;9.07;;;7.50;99.90;;;;;;5072064;28;20210;-74
2021/04/18 00:56:10;;;;;;;9.40;8.30;;;7.60;99.90;;;;;;5072470;28;20198;-73
2021/04/18 00:58:38;;;;;;;9.37;8.50;;;7.50;99.90;;;;;;5072029;28;20206;-71
2021/04/18 01:01:06;;;;;;;11.23;9.70;;;7.50;99.90;;;;;;5072108;28;20213;-72
2021/04/18 01:03:33;;;;;;;12.37;8.87;;;7.40;99.90;;;;;;5071898;28;20202;-74
2021/04/18 01:05:59;;;;;;;9.30;8.37;;;7.40;99.90;;;;;;5072170;28;20669;-70
2021/04/18 01:08:27;;;;;;;12.70;9.73;;;7.50;99.90;;;;;;5071597;28;20210;-71
2021/04/18 01:10:53;;;;;;;12.03;10.10;;;7.50;99.90;;;;;;5072328;28;20207;-74
2021/04/18 01:13:20;;;;;;;9.17;8.27;;;7.60;99.90;;;;;;5072505;28;20214;-70
2021/04/18 01:15:46;;;;;;;10.50;8.80;;;7.60;99.90;;;;;;5071788;28;20227;-73
2021/04/18 01:18:13;;;;;;;10.40;9.30;;;7.60;99.90;;;;;;5072102;28;20630;-78
2021/04/18 01:20:39;;;;;;;10.07;9.07;;;7.60;99.90;;;;;;5071625;28;20198;-72
2021/04/18 01:23:07;;;;;;;11.13;10.03;;;7.50;99.90;;;;;;5072187;28;20217;-75
2021/04/18 01:25:33;;;;;;;9.17;8.37;;;7.50;99.90;;;;;;5070937;28;20283;-75
2021/04/18 01:28:00;;;;;;;10.07;8.23;;;7.60;99.90;;;;;;5089603;28;20213;-67
2021/04/18 01:30:28;;;;;;;10.70;9.60;;;7.70;99.90;;;;;;5091235;28;20258;-70
2021/04/18 01:32:58;;;;;;;11.77;10.13;;;7.60;99.90;;;;;;5091864;28;20210;-69
2021/04/18 01:35:25;;;;;;;10.03;9.13;;;7.60;99.90;;;;;;5091285;28;20209;-69
2021/04/18 01:37:52;;;;;;;10.13;9.13;;;7.70;99.90;;;;;;5091662;28;20208;-70
2021/04/18 01:40:21;;;;;;;12.10;10.37;;;7.70;99.90;;;;;;5092372;28;20330;-72
2021/04/18 01:42:49;;;;;;;12.23;9.43;;;7.60;99.90;;;;;;5091544;28;20201;-69
2021/04/18 01:45:18;;;;;;;10.97;9.87;;;7.60;99.90;;;;;;5091398;28;20229;-74
2021/04/18 01:47:46;;;;;;;11.03;9.47;;;7.60;99.90;;;;;;5091179;28;20221;-74
2021/04/18 01:50:16;;;;;;;13.20;9.73;;;7.70;99.90;;;;;;5091708;28;20707;-72
2021/04/18 01:52:43;;;;;;;11.90;10.80;;;7.80;99.90;;;;;;5091332;28;20670;-70
2021/04/18 01:55:12;;;;;;;11.27;8.83;;;7.70;99.90;;;;;;5091453;28;20210;-71
2021/04/18 01:57:39;;;;;;;12.30;10.03;;;7.70;99.90;;;;;;5091065;28;20202;-68
2021/04/18 02:00:09;;;;;;;15.30;10.60;;;7.70;99.90;;;;;;5090694;28;20209;-67
2021/04/18 02:02:35;;;;;;;11.27;10.17;;;7.50;99.90;;;;;;5090775;28;20206;-73
2021/04/18 02:05:02;;;;;;;12.17;10.07;;;7.50;99.90;;;;;;5090892;28;20240;-70
2021/04/18 02:07:28;;;;;;;12.37;10.77;;;7.50;99.90;;;;;;5091272;28;20660;-71
2021/04/18 02:09:55;;;;;;;13.20;10.33;;;7.40;99.90;;;;;;5091002;28;20577;-69
2021/04/18 02:12:21;;;;;;;13.90;9.63;;;7.40;99.90;;;;;;5091029;28;20665;-66
2021/04/18 02:14:49;;;;;;;15.30;10.47;;;7.50;99.90;;;;;;5091396;28;20254;-71
2021/04/18 02:17:15;;;;;;;11.03;9.40;;;7.30;99.90;;;;;;5091083;28;20209;-71
2021/04/18 02:19:42;;;;;;;12.30;11.03;;;7.10;99.90;;;;;;5090958;28;20596;-72
2021/04/18 02:22:08;;;;;;;11.47;9.47;;;7.00;99.90;;;;;;5091106;28;20236;-70
2021/04/18 02:24:34;;;;;;;11.37;10.17;;;7.00;99.90;;;;;;5090511;28;20712;-72
2021/04/18 02:27:01;;;;;;;12.03;10.43;;;6.90;99.90;;;;;;5090443;28;20205;-72
2021/04/18 02:29:27;;;;;;;11.03;9.83;;;6.90;99.90;;;;;;5090448;28;20259;-67
2021/04/18 02:31:55;;;;;;;16.57;11.30;;;7.00;99.90;;;;;;5090831;28;20672;-72
2021/04/18 02:34:22;;;;;;;13.43;11.97;;;6.90;99.90;;;;;;5090277;28;20297;-70
2021/04/18 02:36:48;;;;;;;14.50;11.17;;;7.00;99.90;;;;;;5091085;28;20201;-72
2021/04/18 02:39:15;;;;;;;12.20;10.90;;;6.90;99.90;;;;;;5090955;28;20216;-68
2021/04/18 02:41:41;;;;;;;12.70;11.23;;;6.80;99.90;;;;;;5090149;28;20206;-74
2021/04/18 02:44:08;;;;;;;17.17;10.63;;;6.70;99.90;;;;;;5090383;28;20232;-69
2021/04/18 02:46:34;;;;;;;13.13;11.13;;;6.80;99.90;;;;;;5090319;28;20201;-74
2021/04/18 02:49:02;;;;;;;12.60;11.30;;;6.70;99.90;;;;;;5090394;28;20593;-74
2021/04/18 02:51:29;;;;;;;10.87;9.87;;;6.70;99.90;;;;;;5089811;28;20208;-70
2021/04/18 02:53:58;;;;;;;11.60;10.43;;;6.70;99.90;;;;;;5090488;28;20216;-69
2021/04/18 02:56:25;;;;;;;13.90;11.93;;;6.60;99.90;;;;;;5089939;28;20259;-72
2021/04/18 02:58:52;;;;;;;13.60;12.20;;;6.60;99.90;;;;;;5090559;28;20212;-66
2021/04/18 03:01:18;;;;;;;13.10;11.67;;;6.50;99.90;;;;;;5090527;28;20673;-70
2021/04/18 03:03:45;;;;;;;13.87;12.17;;;6.60;99.90;;;;;;5090339;28;20201;-75
2021/04/18 03:06:12;;;;;;;16.10;11.73;;;6.50;99.90;;;;;;5090460;28;20201;-76
2021/04/18 03:08:39;;;;;;;14.80;11.53;;;6.60;99.90;;;;;;5089921;28;20203;-74
2021/04/18 03:11:05;;;;;;;13.30;11.77;;;6.60;99.90;;;;;;5090478;28;20210;-71
2021/04/18 03:13:32;;;;;;;15.17;12.07;;;6.50;99.90;;;;;;5093196;28;20197;-69
2021/04/18 03:15:59;;;;;;;15.30;12.93;;;6.40;99.90;;;;;;5094859;28;20216;-72
2021/04/18 03:18:25;;;;;;;12.53;11.27;;;6.40;99.90;;;;;;5094086;28;20197;-65
2021/04/18 03:20:52;;;;;;;14.53;11.50;;;6.30;99.90;;;;;;5094832;28;20202;-65
2021/04/18 03:23:19;;;;;;;19.03;13.73;;;6.30;99.90;;;;;;5094387;28;20213;-69
2021/04/18 03:25:45;;;;;;;14.90;13.30;;;6.30;99.90;;;;;;5094029;28;20225;-70
2021/04/18 03:28:12;;;;;;;17.67;11.50;;;6.30;99.90;;;;;;5094647;28;20210;-71
2021/04/18 03:30:38;;;;;;;14.40;12.90;;;6.30;99.90;;;;;;5093863;28;20247;-73
2021/04/18 03:33:05;;;;;;;15.33;13.63;;;6.30;99.90;;;;;;5094533;28;20248;-73
2021/04/18 03:35:32;;;;;;;14.90;13.30;;;6.20;99.90;;;;;;5093371;28;20213;-69
2021/04/18 03:37:58;;;;;;;16.57;12.97;;;6.20;99.90;;;;;;5093919;28;20583;-73
2021/04/18 03:40:26;;;;;;;15.07;13.57;;;6.20;99.90;;;;;;5093440;28;20250;-67
2021/04/18 03:42:52;;;;;;;15.00;13.40;;;6.30;99.90;;;;;;5093804;28;20534;-70
2021/04/18 03:45:18;;;;;;;14.00;12.17;;;6.30;99.90;;;;;;5094530;28;20229;-71
2021/04/18 03:47:45;;;;;;;13.13;11.83;;;6.20;99.90;;;;;;5093489;28;20857;-65
2021/04/18 03:50:13;;;;;;;14.63;13.23;;;6.20;99.90;;;;;;5093961;28;21188;-68
2021/04/18 03:52:39;;;;;;;14.57;13.07;;;6.20;99.90;;;;;;5082928;28;20217;-73
2021/04/18 03:55:07;;;;;;;14.13;12.33;;;6.20;99.90;;;;;;5087323;28;20197;-72
2021/04/18 03:57:34;;;;;;;15.90;12.33;;;6.10;99.90;;;;;;5093810;28;20209;-72
2021/04/18 04:00:01;;;;;;;15.20;13.17;;;6.10;99.90;;;;;;5093354;28;20198;-68
2021/04/18 04:02:27;;;;;;;17.53;13.50;;;6.10;99.90;;;;;;5093531;28;20217;-73
2021/04/18 04:04:53;;;;;;;14.67;13.17;;;6.10;99.90;;;;;;5093519;28;20241;-69
2021/04/18 04:07:20;;;;;;;13.40;12.10;;;6.10;99.90;;;;;;5094238;28;20205;-68
2021/04/18 04:09:46;;;;;;;16.23;14.00;;;6.10;99.90;;;;;;5092554;28;20205;-74
2021/04/18 04:12:13;;;;;;;14.90;12.97;;;6.10;99.90;;;;;;5081779;28;20206;-65
2021/04/18 04:14:40;;;;;;;14.87;13.37;;;6.10;99.90;;;;;;5093079;28;20233;-72
2021/04/18 04:17:07;;;;;;;14.47;13.03;;;6.20;99.90;;;;;;5093576;28;20205;-67
2021/04/18 04:19:33;;;;;;;15.77;13.73;;;6.10;99.90;;;;;;5093100;28;20208;-68
2021/04/18 04:22:00;;;;;;;15.47;13.77;;;6.00;99.90;;;;;;5093432;28;20208;-73
2021/04/18 04:24:26;;;;;;;17.23;13.73;;;5.90;99.90;;;;;;5091708;28;20233;-71
2021/04/18 04:26:53;;;;;;;14.77;12.43;;;5.90;99.90;;;;;;5093036;28;20677;-68
2021/04/18 04:29:19;;;;;;;16.53;13.93;;;6.00;99.90;;;;;;5093497;28;20251;-72
2021/04/18 04:31:47;;;;;;;14.63;12.57;;;6.00;99.90;;;;;;5092943;28;20206;-69
2021/04/18 04:34:13;;;;;;;14.40;12.93;;;6.00;99.90;;;;;;5093086;28;20731;-72
2021/04/18 04:36:40;;;;;;;21.77;13.70;;;6.00;99.90;;;;;;5092755;28;20255;-72
2021/04/18 04:39:07;;;;;;;16.53;14.80;;;5.90;99.90;;;;;;5092652;28;20205;-72
2021/04/18 04:41:34;;;;;;;16.63;14.27;;;5.90;99.90;;;;;;5084916;28;20214;-70
2021/04/18 04:44:00;;;;;;;17.13;13.80;;;5.90;99.90;;;;;;5087143;28;20201;-69
2021/04/18 04:46:27;;;;;;;14.83;13.00;;;5.90;99.90;;;;;;5091003;28;20278;-70
2021/04/18 04:48:54;;;;;;;16.10;14.43;;;6.00;99.90;;;;;;5084807;28;20217;-72
2021/04/18 04:51:21;;;;;;;14.53;12.83;;;6.00;99.90;;;;;;5092871;28;20209;-73
2021/04/18 04:53:47;;;;;;;14.53;13.03;;;6.00;99.90;;;;;;5092650;28;20224;-72
2021/04/18 04:56:14;;;;;;;18.17;15.03;;;5.80;99.90;;;;;;5092164;28;20206;-72
2021/04/18 04:58:40;;;;;;;15.07;13.17;;;5.80;99.90;;;;;;5092251;28;20210;-68
2021/04/18 05:01:06;;;;;;;15.87;13.37;;;5.80;99.90;;;;;;5092088;28;20209;-67
2021/04/18 05:03:33;;;;;;;14.93;12.90;;;5.80;99.90;;;;;;5092272;28;20206;-66
2021/04/18 05:06:00;;;;;;;15.83;14.23;;;5.80;99.90;;;;;;5083919;28;20629;-74
2021/04/18 05:08:27;;;;;;;14.27;12.37;;;5.80;99.90;;;;;;5087606;28;20209;-72
2021/04/18 05:10:53;;;;;;;16.80;14.40;;;5.80;99.90;;;;;;5086907;28;20210;-71
2021/04/18 05:13:20;;;;;;;16.97;14.77;;;5.80;99.90;;;;;;5085250;28;20205;-70
2021/04/18 05:15:46;;;;;;;16.63;14.23;;;5.80;99.90;;;;;;5076592;28;20206;-71
2021/04/18 05:18:12;;;;;;;17.97;16.03;;;5.80;99.90;;;;;;5083850;28;20215;-66
2021/04/18 05:20:40;;;;;;;15.53;13.77;;;5.80;99.90;;;;;;5087795;28;20206;-73
2021/04/18 05:23:07;;;;;;;15.93;14.23;;;6.00;99.90;;;;;;5084969;28;20214;-73
2021/04/18 05:25:35;;;;;;;16.77;15.07;;;5.90;99.90;;;;;;5077507;28;20256;-69
2021/04/18 05:28:02;;;;;;;17.33;13.67;;;5.90;99.90;;;;;;5085121;28;20262;-70
2021/04/18 05:30:29;;;;;;;15.93;14.10;;;5.80;99.90;;;;;;5084855;28;20575;-65
2021/04/18 05:32:55;;;;;;;17.90;15.20;;;5.80;99.90;;;;;;5084940;28;20205;-70
2021/04/18 05:35:22;;;;;;;17.37;13.67;;;5.80;99.90;;;;;;5088406;28;20206;-64
2021/04/18 05:37:48;;;;;;;17.77;14.70;;;5.80;99.90;;;;;;5090210;28;20557;-70
2021/04/18 05:40:16;;;;;;;14.33;12.87;;;5.90;99.90;;;;;;5090331;28;20216;-74
2021/04/18 05:42:43;;;;;;;17.40;14.83;;;6.00;99.90;;;;;;5089949;28;20205;-65
2021/04/18 05:45:10;;;;;;;15.77;14.13;;;6.00;99.90;;;;;;5090361;28;20233;-70
2021/04/18 05:47:36;;;;;;;20.73;14.17;;;6.00;99.90;;;;;;5079770;28;20209;-71
2021/04/18 05:50:04;;;;;;;20.70;15.43;;;6.00;99.90;;;;;;5089720;28;20251;-65
2021/04/18 05:52:31;;;;;;;17.63;14.77;;;6.20;99.90;;;;;;5079243;28;20210;-75
2021/04/18 05:54:57;;;;;;;18.17;14.13;;;6.30;99.90;;;;;;5069905;28;20259;-69
2021/04/18 05:57:25;;;;;;;20.70;15.37;;;6.50;99.90;;;;;;5072589;28;20213;-64
2021/04/18 05:59:51;;;;;;;21.60;14.43;;;6.60;99.90;;;;;;5081374;28;20209;-72
2021/04/18 06:02:18;;;;;;;14.87;13.27;;;6.80;99.90;;;;;;5078194;28;20206;-68
2021/04/18 06:04:45;;;;;;;16.50;14.73;;;6.60;99.90;;;;;;5079129;28;20257;-75
2021/04/18 06:07:11;;;;;;;14.33;12.87;;;6.70;99.90;;;;;;5080626;28;20782;-71
2021/04/18 06:09:38;;;;;;;15.77;14.17;;;6.80;99.90;;;;;;5077979;28;20210;-72
2021/04/18 06:12:05;;;;;;;15.67;14.10;;;6.70;99.90;;;;;;5082200;28;20691;-71
2021/04/18 06:14:32;;;;;;;16.53;13.77;;;6.70;99.90;;;;;;5076976;28;20210;-69
2021/04/18 06:16:59;;;;;;;18.13;14.17;;;6.70;99.90;;;;;;5082783;28;20202;-72
2021/04/18 06:19:25;;;;;;;19.83;14.63;;;6.80;99.90;;;;;;5077220;28;20202;-68
2021/04/18 06:21:52;;;;;;;17.87;14.07;;;6.90;99.90;;;;;;5080215;28;20723;-66
2021/04/18 06:24:18;;;;;;;19.03;14.07;;;6.90;99.90;;;;;;5079064;28;20226;-71
2021/04/18 06:26:45;;;;;;;16.87;13.97;;;7.00;99.90;;;;;;5078099;28;20567;-70
2021/04/18 06:29:11;;;;;;;15.17;13.00;;;7.10;99.90;;;;;;5081498;28;20232;-73
2021/04/18 06:31:38;;;;;;;16.73;13.87;;;7.20;99.90;;;;;;5076880;28;20222;-67
2021/04/18 06:34:05;;;;;;;16.03;14.43;;;7.30;99.90;;;;;;5076845;28;20205;-66
2021/04/18 06:36:32;;;;;;;13.00;11.80;;;7.30;99.90;;;;;;5090542;28;20205;-66
2021/04/18 06:38:58;;;;;;;14.03;11.93;;;7.60;99.90;;;;;;5090572;28;20677;-67
2021/04/18 06:41:26;;;;;;;15.37;13.77;;;7.90;99.90;;;;;;5090860;28;20213;-68
2021/04/18 06:43:52;;;;;;;17.47;13.70;;;7.90;99.90;;;;;;5091161;28;20205;-67
2021/04/18 06:46:22;;;;;;;18.43;13.30;;;7.80;99.90;;;;;;5088756;28;20286;-69
2021/04/18 06:48:50;;;;;;;17.03;13.20;;;7.80;99.90;;;;;;5061674;28;20226;-72
2021/04/18 06:51:17;;;;;;;14.57;13.17;;;8.00;99.90;;;;;;5079402;28;20198;-69
2021/04/18 06:53:43;;;;;;;12.33;10.67;;;8.00;99.90;;;;;;5089135;28;20209;-71
2021/04/18 06:56:10;;;;;;;13.37;12.03;;;8.10;99.90;;;;;;5072554;28;20207;-74
2021/04/18 06:58:36;;;;;;;14.80;11.70;;;8.20;99.90;;;;;;5090473;28;20216;-70
2021/04/18 07:01:04;;;;;;;12.57;11.27;;;8.30;99.90;;;;;;5079326;28;20662;-69
2021/04/18 07:03:31;;;;;;;15.87;10.93;;;8.40;99.90;;;;;;5090076;28;20677;-75
2021/04/18 07:05:59;;;;;;;14.83;11.67;;;8.50;99.90;;;;;;5090319;28;20237;-70
2021/04/18 07:08:27;;;;;;;12.37;10.60;;;8.50;99.90;;;;;;5087171;28;20203;-72
2021/04/18 07:11:11;;;;;;;12.03;10.53;;;8.60;99.90;;;;;;5062342;28;20678;-75
2021/04/18 07:13:38;;;;;;;17.47;12.70;;;8.60;99.90;;;;;;5076639;28;20205;-67
2021/04/18 07:16:21;;;;;;;12.73;11.17;;;8.70;99.90;;;;;;5085396;28;20248;-77
2021/04/18 07:18:48;;;;;;;12.23;10.50;;;8.80;99.90;;;;;;5076649;28;20695;-76
2021/04/18 07:21:16;;;;;;;11.33;10.13;;;8.90;99.90;;;;;;5090682;28;20209;-81
2021/04/18 07:23:42;;;;;;;12.03;10.83;;;8.90;99.90;;;;;;5090228;28;20263;-76
2021/04/18 07:26:25;;;;;;;12.47;9.87;;;10.00;99.90;;;;;;5090608;28;20310;-82
2021/04/18 07:28:52;;;;;;;11.87;9.90;;;9.10;99.90;;;;;;5088600;28;20684;-79
2021/04/18 07:31:33;;;;;;;12.40;9.30;;;9.20;99.90;;;;;;5072214;28;20210;-72
2021/04/18 07:34:05;;;;;;;12.47;10.40;;;9.20;99.90;;;;;;5075165;28;20201;-74
2021/04/18 07:36:33;;;;;;;11.03;9.93;;;9.40;99.90;;;;;;5089871;28;20589;-66
2021/04/18 07:39:00;;;;;;;12.37;10.50;;;9.50;99.90;;;;;;5090424;28;20208;-70
2021/04/18 07:41:26;;;;;;;11.90;10.67;;;9.50;99.90;;;;;;5089963;28;20209;-72
2021/04/18 07:43:53;;;;;;;11.67;10.20;;;9.50;99.90;;;;;;5090200;28;20212;-74
2021/04/18 07:46:21;;;;;;;14.80;10.33;;;9.60;99.90;;;;;;5077721;28;20225;-74
2021/04/18 07:48:48;;;;;;;12.07;9.00;;;9.70;99.90;;;;;;5089979;28;20221;-73
2021/04/18 07:51:15;;;;;;;17.20;10.07;;;9.80;99.90;;;;;;5089876;28;20665;-72
2021/04/18 07:53:42;;;;;;;17.63;10.30;;;9.90;99.90;;;;;;5082684;28;20206;-73
2021/04/18 07:56:09;;;;;;;13.00;10.30;;;9.90;99.90;;;;;;5090008;28;20201;-76
2021/04/18 07:58:40;;;;;;;11.10;10.07;;;9.90;99.90;;;;;;5087040;28;20677;-85
2021/04/18 08:01:07;;;;;;;14.40;10.10;;;10.20;99.90;;;;;;5081137;28;20617;-74
2021/04/18 08:03:35;;;;;;;11.97;9.93;;;10.50;99.90;;;;;;5093834;28;20573;-73
2021/04/18 08:06:01;;;;;;;11.63;8.47;;;10.60;99.90;;;;;;5091187;28;20233;-75
2021/04/18 08:08:45;;;;;;;9.10;8.20;;;10.50;99.90;;;;;;5093277;28;20205;-74
2021/04/18 08:11:14;;;;;;;9.27;8.37;;;10.80;99.90;;;;;;5093896;28;20701;-69
2021/04/18 08:13:43;;;;;;;12.70;10.30;;;11.20;99.90;;;;;;5091240;28;20202;-75
2021/04/18 08:16:10;;;;;;;11.37;9.67;;;11.30;99.90;;;;;;5090691;28;20245;-72
2021/04/18 08:18:40;;;;;;;9.97;8.83;;;11.20;99.90;;;;;;5078788;28;20202;-73
2021/04/18 08:21:23;;;;;;;10.90;9.03;;;11.10;99.90;;;;;;5093290;28;20243;-68
2021/04/18 08:23:51;;;;;;;11.30;9.33;;;11.00;99.90;;;;;;5067149;28;20206;-77
2021/04/18 08:26:18;;;;;;;10.63;9.53;;;11.30;99.90;;;;;;5062358;28;20687;-70
2021/04/18 08:29:09;;;;;;;11.13;9.87;;;11.30;99.90;;;;;;5063948;28;20580;-72
2021/04/18 08:31:59;;;;;;;12.27;9.97;;;11.30;99.90;;;;;;5067458;28;20207;-73
2021/04/18 08:34:28;;;;;;;10.33;9.33;;;13.90;99.90;;;;;;5067741;28;20256;-72
2021/04/18 08:36:56;;;;;;;11.73;9.10;;;13.90;99.90;;;;;;5060372;28;20209;-71
2021/04/18 08:39:26;;;;;;;10.27;8.63;;;14.70;99.90;;;;;;5067781;28;20274;-67
2021/04/18 08:41:54;;;;;;;9.90;8.97;;;13.40;99.90;;;;;;5065282;28;20666;-69
2021/04/18 08:44:23;;;;;;;10.47;9.33;;;13.00;99.90;;;;;;5069722;28;20288;-79
2021/04/18 08:46:52;;;;;;;9.50;8.50;;;13.00;99.90;;;;;;5073376;28;20319;-79
2021/04/18 08:49:31;;;;;;;10.27;9.30;;;12.20;99.90;;;;;;5072367;28;20218;-73
2021/04/18 08:51:59;;;;;;;9.90;9.00;;;12.90;99.90;;;;;;5070634;28;20210;-73
2021/04/18 08:54:29;;;;;;;10.27;9.37;;;13.10;99.90;;;;;;5062823;28;21691;-73
2021/04/18 08:56:59;;;;;;;11.33;10.10;;;14.10;99.90;;;;;;5069259;28;20202;-69
2021/04/18 08:59:26;;;;;;;10.50;9.33;;;13.70;99.90;;;;;;5073788;28;20583;-74
2021/04/18 09:02:03;;;;;;;10.23;9.10;;;13.30;99.90;;;;;;5075543;28;20301;-74
2021/04/18 09:04:31;;;;;;;11.93;9.23;;;13.30;99.90;;;;;;5068262;28;20212;-81
2021/04/18 09:06:58;;;;;;;10.40;9.40;;;13.50;99.90;;;;;;5074992;28;20264;-80
2021/04/18 09:09:25;;;;;;;10.17;8.60;;;13.60;99.90;;;;;;5073605;28;20210;-80
2021/04/18 09:11:53;;;;;;;9.57;8.50;;;13.70;99.90;;;;;;5075633;28;20595;-67
2021/04/18 09:14:25;;;;;;;8.90;8.00;;;14.00;99.90;;;;;;5074385;28;20213;-81
2021/04/18 09:16:52;;;;;;;9.10;8.30;;;14.40;99.90;;;;;;5075937;28;20240;-72
2021/04/18 09:19:27;;;;;;;8.25;7.20;;;14.40;99.90;;;;;;5074443;28;20206;-79
2021/04/18 09:21:59;;;;;;;9.95;7.70;;;14.20;99.90;;;;;;5075511;28;20201;-81
2021/04/18 09:24:28;;;;;;;9.65;7.65;;;14.10;99.90;;;;;;5073621;28;20210;-82
2021/04/18 09:26:57;;;;;;;7.80;7.10;;;14.40;99.90;;;;;;5075709;28;20260;-80
2021/04/18 09:29:23;;;;;;;7.75;6.95;;;14.30;99.90;;;;;;5073590;28;20268;-67
2021/04/18 09:31:55;;;;;;;7.65;6.82;;;14.70;99.90;;;;;;5075659;28;20236;-84
2021/04/18 09:34:22;;;;;;;8.55;7.78;;;14.70;99.90;;;;;;5078320;28;20258;-69
2021/04/18 09:36:50;;;;;;;11.07;6.97;;;15.10;99.90;;;;;;5079933;28;20212;-80
2021/04/18 09:39:17;;;;;;;7.10;6.05;;;16.10;99.90;;;;;;5073303;28;20212;-81
2021/04/18 09:41:44;;;;;;;7.03;6.53;;;18.50;99.90;;;;;;5072109;28;20252;-77
2021/04/18 09:44:26;;;;;;;7.13;6.43;;;17.80;99.90;;;;;;5072703;28;20649;-79
2021/04/18 09:46:54;;;;;;;6.72;6.13;;;19.30;99.90;;;;;;5072119;28;20585;-79
2021/04/18 09:49:21;;;;;;;8.32;6.82;;;18.70;99.90;;;;;;5073532;28;20205;-82
2021/04/18 09:52:00;;;;;;;7.10;6.45;;;20.70;99.90;;;;;;5072319;28;20229;-83
2021/04/18 09:54:28;;;;;;;6.85;5.75;;;20.30;99.90;;;;;;5072293;28;20591;-79
2021/04/18 09:57:15;;;;;;;6.90;6.30;;;22.60;99.90;;;;;;5072004;28;20202;-83
2021/04/18 09:59:43;;;;;;;7.55;6.85;;;23.00;99.90;;;;;;5071974;28;20224;-79
2021/04/18 10:02:14;;;;;;;7.22;5.28;;;24.10;99.90;;;;;;5071894;28;20692;-79
2021/04/18 10:04:41;;;;;;;6.72;6.13;;;24.80;99.90;;;;;;5071855;28;20214;-80
2021/04/18 10:07:08;;;;;;;7.72;6.65;;;24.00;99.90;;;;;;5071837;28;20259;-79
2021/04/18 10:09:51;;;;;;;6.22;5.32;;;20.10;99.90;;;;;;5071608;28;20206;-79
2021/04/18 10:12:18;;;;;;;5.80;5.30;;;16.10;99.90;;;;;;5072168;28;20686;-82
2021/04/18 10:14:46;;;;;;;6.00;5.43;;;18.40;99.90;;;;;;5071996;28;20217;-74
2021/04/18 10:17:12;;;;;;;5.47;4.97;;;22.00;99.90;;;;;;5071903;28;20209;-74
2021/04/18 10:19:50;;;;;;;6.43;5.82;;;23.10;99.90;;;;;;5069429;28;20198;-80
2021/04/18 10:22:17;;;;;;;5.35;4.60;;;22.60;99.90;;;;;;5071342;28;20561;-78
2021/04/18 10:24:46;;;;;;;5.38;4.88;;;22.80;99.90;;;;;;5071069;28;20234;-74
2021/04/18 10:27:14;;;;;;;4.50;4.10;;;22.80;99.90;;;;;;5072012;28;20283;-83
2021/04/18 10:29:42;;;;;;;4.53;3.78;;;22.00;99.90;;;;;;5071356;28;20271;-79
2021/04/18 10:32:10;;;;;;;11.23;5.88;;;23.00;99.90;;;;;;5072437;28;20213;-82
2021/04/18 10:34:37;;;;;;;8.90;6.15;;;19.20;99.90;;;;;;5077588;28;20198;-72
2021/04/18 10:37:05;;;;;;;7.55;4.93;;;17.20;99.90;;;;;;5091293;28;20210;-77
2021/04/18 10:39:32;;;;;;;3.80;3.50;;;16.10;99.90;;;;;;5091269;28;20220;-81
2021/04/18 10:41:58;;;;;;;4.45;4.05;;;15.50;99.90;;;;;;5091001;28;20217;-74
2021/04/18 10:44:26;;;;;;;3.97;3.40;;;15.40;99.90;;;;;;5090242;28;20262;-79
2021/04/18 10:46:55;;;;;;;5.10;4.60;;;15.90;99.90;;;;;;5090724;28;20205;-79
2021/04/18 10:49:23;;;;;;;4.47;4.07;;;16.80;99.90;;;;;;5090930;28;20255;-69
2021/04/18 10:51:50;;;;;;;4.63;4.15;;;17.00;99.90;;;;;;5091026;28;20210;-81
2021/04/18 10:54:17;;;;;;;4.82;4.32;;;15.80;99.90;;;;;;5090731;28;20201;-79
2021/04/18 10:56:43;;;;;;;4.47;3.83;;;15.30;99.90;;;;;;5090334;28;20608;-79
2021/04/18 10:59:10;;;;;;;7.35;4.63;;;16.00;99.90;;;;;;5091047;28;20205;-72
2021/04/18 11:01:37;;;;;;;4.68;4.28;;;15.40;99.90;;;;;;5090135;28;20197;-80
2021/04/18 11:04:04;;;;;;;6.32;4.90;;;15.30;99.90;;;;;;5090824;28;20278;-76
2021/04/18 11:06:31;;;;;;;5.40;4.68;;;15.10;99.90;;;;;;5089906;28;20225;-81
2021/04/18 11:08:57;;;;;;;5.00;4.55;;;15.40;99.90;;;;;;5090453;28;20207;-81
2021/04/18 11:11:25;;;;;;;5.50;4.82;;;15.70;99.90;;;;;;5090096;28;20201;-72
2021/04/18 11:13:52;;;;;;;5.88;5.10;;;15.90;99.90;;;;;;5090700;28;20648;-80
2021/04/18 11:16:19;;;;;;;6.85;4.60;;;15.80;99.90;;;;;;5090610;28;20220;-81
2021/04/18 11:18:46;;;;;;;5.80;5.10;;;16.00;99.90;;;;;;5090511;28;20201;-84
2021/04/18 11:21:12;;;;;;;5.38;3.97;;;16.60;99.90;;;;;;5090523;28;20646;-82
2021/04/18 11:23:40;;;;;;;5.57;5.07;;;16.30;99.90;;;;;;5089565;28;20658;-81
2021/04/18 11:26:06;;;;;;;5.50;5.00;;;15.70;99.90;;;;;;5090510;28;20264;-81
2021/04/18 11:28:33;;;;;;;5.03;4.63;;;15.10;99.90;;;;;;5089893;28;20209;-79
2021/04/18 11:31:00;;;;;;;6.72;5.55;;;15.10;99.90;;;;;;5090346;28;20290;-78
2021/04/18 11:33:27;;;;;;;5.20;4.70;;;15.20;99.90;;;;;;5091408;28;20209;-79
2021/04/18 11:35:53;;;;;;;7.13;5.85;;;15.80;99.90;;;;;;5094349;28;20213;-73
2021/04/18 11:38:20;;;;;;;11.98;10.32;;;16.60;99.90;;;;;;5094631;28;20201;-80
2021/04/18 11:40:48;;;;;;;20.88;16.60;;;16.90;99.90;;;;;;5094059;28;20251;-77
2021/04/18 11:43:14;;;;;;;10.25;6.15;;;16.70;99.90;;;;;;5094061;28;20202;-81
2021/04/18 11:45:41;;;;;;;13.88;10.45;;;15.70;99.90;;;;;;5093636;28;20716;-79
2021/04/18 11:48:09;;;;;;;8.10;7.15;;;15.30;99.90;;;;;;5093921;28;20209;-75
2021/04/18 11:50:35;;;;;;;7.13;6.38;;;15.60;99.90;;;;;;5093917;28;20210;-82
2021/04/18 11:53:02;;;;;;;6.32;5.72;;;15.60;99.90;;;;;;5093787;28;20206;-81
2021/04/18 11:55:29;;;;;;;6.88;6.28;;;15.70;99.90;;;;;;5093642;28;20205;-74
2021/04/18 11:57:56;;;;;;;6.35;5.75;;;16.00;99.90;;;;;;5093734;28;20201;-82
2021/04/18 12:00:23;;;;;;;5.90;5.40;;;16.80;99.90;;;;;;5094053;28;20209;-74
2021/04/18 12:02:50;;;;;;;8.32;6.63;;;16.40;99.90;;;;;;5094210;28;20207;-79
2021/04/18 12:05:17;;;;;;;4.95;4.47;;;16.40;99.90;;;;;;5093991;28;20229;-79
2021/04/18 12:07:44;;;;;;;7.78;6.40;;;16.90;99.90;;;;;;5093271;28;20677;-82
2021/04/18 12:10:12;;;;;;;5.82;5.32;;;16.40;99.90;;;;;;5093707;28;20272;-76
2021/04/18 12:12:40;;;;;;;8.00;6.20;;;16.10;99.90;;;;;;5093511;28;20232;-79
2021/04/18 12:15:09;;;;;;;5.88;5.10;;;16.20;99.90;;;;;;5093207;28;20209;-71
2021/04/18 12:17:36;;;;;;;5.75;5.15;;;16.80;99.90;;;;;;5093169;28;20210;-78
2021/04/18 12:20:06;;;;;;;6.97;6.28;;;16.30;99.90;;;;;;5089036;28;20259;-80
2021/04/18 12:22:33;;;;;;;6.97;6.40;;;16.00;99.90;;;;;;5071052;28;20638;-77
2021/04/18 12:25:00;;;;;;;7.13;5.32;;;16.80;99.90;;;;;;5093018;28;20229;-74
2021/04/18 12:27:27;;;;;;;6.85;6.18;;;16.20;99.90;;;;;;5093221;28;20206;-79
2021/04/18 12:29:53;;;;;;;8.68;7.03;;;15.60;99.90;;;;;;5093535;28;20213;-70
2021/04/18 12:32:22;;;;;;;6.53;5.90;;;15.90;99.90;;;;;;5093636;28;20201;-78
2021/04/18 12:34:48;;;;;;;9.60;7.75;;;16.10;99.90;;;;;;5093426;28;20206;-81
2021/04/18 12:37:15;;;;;;;6.97;6.28;;;16.30;99.90;;;;;;5092856;28;20283;-75
2021/04/18 12:39:42;;;;;;;7.15;6.43;;;16.00;99.90;;;;;;5093449;28;20630;-84
2021/04/18 12:42:08;;;;;;;7.13;6.43;;;15.70;99.90;;;;;;5093122;28;20255;-76
2021/04/18 12:44:35;;;;;;;6.88;6.05;;;15.40;99.90;;;;;;5091592;28;20201;-76